sensor_id;sensor_type;location;lat;lon;timestamp;temperature;humidity
12123;DHT22;6125;59.628;17.852;2023-07-13T00:01:53;16.40;99.90
12123;DHT22;6125;59.628;17.852;2023-07-13T00:04:22;16.40;99.90
12123;DHT22;6125;59.628;17.852;2023-07-13T00:06:51;16.30;99.90
12123;DHT22;6125;59.628;17.852;2023-07-13T00:09:19;16.30;99.90
12123;DHT22;6125;59.628;17.852;2023-07-13T00:11:52;16.30;99.90
12123;DHT22;6125;59.628;17.852;2023-07-13T00:14:21;16.20;99.90
12123;DHT22;6125;59.628;17.852;2023-07-13T00:16:49;16.20;99.90
12123;DHT22;6125;59.628;17.852;2023-07-13T00:19:16;16.20;99.90
12123;DHT22;6125;59.628;17.852;2023-07-13T00:21:44;16.20;99.90
12123;DHT22;6125;59.628;17.852;2023-07-13T00:24:13;16.10;99.90
12123;DHT22;6125;59.628;17.852;2023-07-13T00:26:41;16.10;99.90
12123;DHT22;6125;59.628;17.852;2023-07-13T00:29:10;16.10;99.90
12123;DHT22;6125;59.628;17.852;2023-07-13T00:31:39;16.10;99.90
12123;DHT22;6125;59.628;17.852;2023-07-13T00:34:06;16.00;99.90
12123;DHT22;6125;59.628;17.852;2023-07-13T00:36:33;16.00;99.90
12123;DHT22;6125;59.628;17.852;2023-07-13T00:39:01;16.00;99.90
12123;DHT22;6125;59.628;17.852;2023-07-13T00:41:29;16.00;99.90
12123;DHT22;6125;59.628;17.852;2023-07-13T00:43:56;16.00;99.90
12123;DHT22;6125;59.628;17.852;2023-07-13T00:46:26;15.90;99.90
12123;DHT22;6125;59.628;17.852;2023-07-13T00:48:57;15.90;99.90
12123;DHT22;6125;59.628;17.852;2023-07-13T00:51:39;15.90;99.90
12123;DHT22;6125;59.628;17.852;2023-07-13T00:54:11;15.90;99.90
12123;DHT22;6125;59.628;17.852;2023-07-13T00:56:40;15.90;99.90
12123;DHT22;6125;59.628;17.852;2023-07-13T00:59:09;15.90;99.90
12123;DHT22;6125;59.628;17.852;2023-07-13T01:01:38;15.90;99.90
12123;DHT22;6125;59.628;17.852;2023-07-13T01:04:07;15.80;99.90
12123;DHT22;6125;59.628;17.852;2023-07-13T01:06:35;15.80;99.90
12123;DHT22;6125;59.628;17.852;2023-07-13T01:09:03;15.80;99.90
12123;DHT22;6125;59.628;17.852;2023-07-13T01:11:31;15.80;99.90
12123;DHT22;6125;59.628;17.852;2023-07-13T01:13:58;15.80;99.90
12123;DHT22;6125;59.628;17.852;2023-07-13T01:16:30;15.70;99.90
12123;DHT22;6125;59.628;17.852;2023-07-13T01:18:58;15.70;99.90
12123;DHT22;6125;59.628;17.852;2023-07-13T01:21:29;15.70;99.90
12123;DHT22;6125;59.628;17.852;2023-07-13T01:23:59;15.70;99.90
12123;DHT22;6125;59.628;17.852;2023-07-13T01:26:26;15.60;99.90
12123;DHT22;6125;59.628;17.852;2023-07-13T01:28:54;15.60;99.90
12123;DHT22;6125;59.628;17.852;2023-07-13T01:31:22;15.60;99.90
12123;DHT22;6125;59.628;17.852;2023-07-13T01:33:49;15.60;99.90
12123;DHT22;6125;59.628;17.852;2023-07-13T01:36:17;15.60;99.90
12123;DHT22;6125;59.628;17.852;2023-07-13T01:38:48;15.50;99.90
12123;DHT22;6125;59.628;17.852;2023-07-13T01:41:15;15.50;99.90
12123;DHT22;6125;59.628;17.852;2023-07-13T01:43:42;15.40;99.90
12123;DHT22;6125;59.628;17.852;2023-07-13T01:46:10;15.40;99.90
12123;DHT22;6125;59.628;17.852;2023-07-13T01:48:37;15.40;99.90
12123;DHT22;6125;59.628;17.852;2023-07-13T01:51:04;15.40;99.90
12123;DHT22;6125;59.628;17.852;2023-07-13T01:53:32;15.40;99.90
12123;DHT22;6125;59.628;17.852;2023-07-13T01:56:00;15.40;99.90
12123;DHT22;6125;59.628;17.852;2023-07-13T01:58:28;15.40;99.90
12123;DHT22;6125;59.628;17.852;2023-07-13T02:00:55;15.40;99.90
12123;DHT22;6125;59.628;17.852;2023-07-13T02:03:22;15.40;99.90
12123;DHT22;6125;59.628;17.852;2023-07-13T02:05:49;15.40;99.90
12123;DHT22;6125;59.628;17.852;2023-07-13T02:08:17;15.40;99.90
12123;DHT22;6125;59.628;17.852;2023-07-13T02:10:44;15.40;99.90
12123;DHT22;6125;59.628;17.852;2023-07-13T02:13:13;15.40;99.90
12123;DHT22;6125;59.628;17.852;2023-07-13T02:15:41;15.40;99.90
12123;DHT22;6125;59.628;17.852;2023-07-13T02:18:08;15.30;99.90
12123;DHT22;6125;59.628;17.852;2023-07-13T02:20:35;15.40;99.90
12123;DHT22;6125;59.628;17.852;2023-07-13T02:23:02;15.40;99.90
12123;DHT22;6125;59.628;17.852;2023-07-13T02:25:30;15.40;99.90
12123;DHT22;6125;59.628;17.852;2023-07-13T02:27:57;15.30;99.90
12123;DHT22;6125;59.628;17.852;2023-07-13T02:30:26;15.40;99.90
12123;DHT22;6125;59.628;17.852;2023-07-13T02:32:55;15.40;99.90
12123;DHT22;6125;59.628;17.852;2023-07-13T02:35:22;15.30;99.90
12123;DHT22;6125;59.628;17.852;2023-07-13T02:37:50;15.40;99.90
12123;DHT22;6125;59.628;17.852;2023-07-13T02:40:17;15.40;99.90
12123;DHT22;6125;59.628;17.852;2023-07-13T02:42:44;15.30;99.90
12123;DHT22;6125;59.628;17.852;2023-07-13T02:45:12;15.40;99.90
12123;DHT22;6125;59.628;17.852;2023-07-13T02:47:42;15.40;99.90
12123;DHT22;6125;59.628;17.852;2023-07-13T02:50:09;15.30;99.90
12123;DHT22;6125;59.628;17.852;2023-07-13T02:52:36;15.30;99.90
12123;DHT22;6125;59.628;17.852;2023-07-13T02:55:04;15.30;99.90
12123;DHT22;6125;59.628;17.852;2023-07-13T02:57:31;15.30;99.90
12123;DHT22;6125;59.628;17.852;2023-07-13T02:59:59;15.30;99.90
12123;DHT22;6125;59.628;17.852;2023-07-13T03:02:31;15.30;99.90
12123;DHT22;6125;59.628;17.852;2023-07-13T03:04:59;15.30;99.90
12123;DHT22;6125;59.628;17.852;2023-07-13T03:07:27;15.30;99.90
12123;DHT22;6125;59.628;17.852;2023-07-13T03:09:55;15.30;99.90
12123;DHT22;6125;59.628;17.852;2023-07-13T03:12:22;15.30;99.90
12123;DHT22;6125;59.628;17.852;2023-07-13T03:14:50;15.40;99.90
12123;DHT22;6125;59.628;17.852;2023-07-13T03:17:17;15.40;99.90
12123;DHT22;6125;59.628;17.852;2023-07-13T03:19:44;15.40;99.90
12123;DHT22;6125;59.628;17.852;2023-07-13T03:22:16;15.50;99.90
12123;DHT22;6125;59.628;17.852;2023-07-13T03:24:44;15.50;99.90
12123;DHT22;6125;59.628;17.852;2023-07-13T03:27:11;15.50;99.90
12123;DHT22;6125;59.628;17.852;2023-07-13T03:29:39;15.60;99.90
12123;DHT22;6125;59.628;17.852;2023-07-13T03:32:06;15.60;99.90
12123;DHT22;6125;59.628;17.852;2023-07-13T03:34:34;15.60;99.90
12123;DHT22;6125;59.628;17.852;2023-07-13T03:37:01;15.70;99.90
12123;DHT22;6125;59.628;17.852;2023-07-13T03:39:30;15.70;99.90
12123;DHT22;6125;59.628;17.852;2023-07-13T03:41:57;15.80;99.90
12123;DHT22;6125;59.628;17.852;2023-07-13T03:44:24;15.80;99.90
12123;DHT22;6125;59.628;17.852;2023-07-13T03:46:52;15.90;99.90
12123;DHT22;6125;59.628;17.852;2023-07-13T03:49:20;15.90;99.90
12123;DHT22;6125;59.628;17.852;2023-07-13T03:51:47;16.00;99.90
12123;DHT22;6125;59.628;17.852;2023-07-13T03:54:14;16.00;99.90
12123;DHT22;6125;59.628;17.852;2023-07-13T03:56:43;16.10;99.90
12123;DHT22;6125;59.628;17.852;2023-07-13T03:59:11;16.10;99.90
12123;DHT22;6125;59.628;17.852;2023-07-13T04:01:38;16.20;99.90
12123;DHT22;6125;59.628;17.852;2023-07-13T04:04:06;16.20;99.90
12123;DHT22;6125;59.628;17.852;2023-07-13T04:06:34;16.20;99.90
12123;DHT22;6125;59.628;17.852;2023-07-13T04:09:03;16.30;99.90
12123;DHT22;6125;59.628;17.852;2023-07-13T04:11:32;16.30;99.90
12123;DHT22;6125;59.628;17.852;2023-07-13T04:14:00;16.30;99.90
12123;DHT22;6125;59.628;17.852;2023-07-13T04:16:28;16.40;99.90
12123;DHT22;6125;59.628;17.852;2023-07-13T04:18:56;16.50;99.90
12123;DHT22;6125;59.628;17.852;2023-07-13T04:21:25;16.50;99.90
12123;DHT22;6125;59.628;17.852;2023-07-13T04:23:54;16.50;99.90
12123;DHT22;6125;59.628;17.852;2023-07-13T04:26:22;16.60;99.90
12123;DHT22;6125;59.628;17.852;2023-07-13T04:28:50;16.60;99.90
12123;DHT22;6125;59.628;17.852;2023-07-13T04:31:19;16.60;99.90
12123;DHT22;6125;59.628;17.852;2023-07-13T04:33:47;16.60;99.90
12123;DHT22;6125;59.628;17.852;2023-07-13T04:36:14;16.70;99.90
12123;DHT22;6125;59.628;17.852;2023-07-13T04:38:42;16.80;99.90
12123;DHT22;6125;59.628;17.852;2023-07-13T04:41:09;16.80;99.90
12123;DHT22;6125;59.628;17.852;2023-07-13T04:43:37;16.90;99.90
12123;DHT22;6125;59.628;17.852;2023-07-13T04:46:05;16.90;99.90
12123;DHT22;6125;59.628;17.852;2023-07-13T04:48:34;17.00;99.90
12123;DHT22;6125;59.628;17.852;2023-07-13T04:51:01;17.10;99.90
12123;DHT22;6125;59.628;17.852;2023-07-13T04:53:29;17.10;99.90
12123;DHT22;6125;59.628;17.852;2023-07-13T04:55:57;17.20;99.90
12123;DHT22;6125;59.628;17.852;2023-07-13T04:58:24;17.20;99.90
12123;DHT22;6125;59.628;17.852;2023-07-13T05:00:52;17.10;99.90
12123;DHT22;6125;59.628;17.852;2023-07-13T05:03:19;17.10;99.90
12123;DHT22;6125;59.628;17.852;2023-07-13T05:05:56;17.10;99.90
12123;DHT22;6125;59.628;17.852;2023-07-13T05:08:23;17.00;99.90
12123;DHT22;6125;59.628;17.852;2023-07-13T05:10:51;17.00;99.90
12123;DHT22;6125;59.628;17.852;2023-07-13T05:13:18;17.00;99.90
12123;DHT22;6125;59.628;17.852;2023-07-13T05:15:46;16.90;99.90
12123;DHT22;6125;59.628;17.852;2023-07-13T05:18:14;16.90;99.90
12123;DHT22;6125;59.628;17.852;2023-07-13T05:20:41;16.90;99.90
12123;DHT22;6125;59.628;17.852;2023-07-13T05:23:10;16.90;99.90
12123;DHT22;6125;59.628;17.852;2023-07-13T05:25:37;16.80;99.90
12123;DHT22;6125;59.628;17.852;2023-07-13T05:28:04;16.90;99.90
12123;DHT22;6125;59.628;17.852;2023-07-13T05:30:31;16.90;99.90
12123;DHT22;6125;59.628;17.852;2023-07-13T05:32:59;16.90;99.90
12123;DHT22;6125;59.628;17.852;2023-07-13T05:35:27;16.90;99.90
12123;DHT22;6125;59.628;17.852;2023-07-13T05:38:01;17.00;99.90
12123;DHT22;6125;59.628;17.852;2023-07-13T05:40:37;17.10;99.90
12123;DHT22;6125;59.628;17.852;2023-07-13T05:43:04;17.10;99.90
12123;DHT22;6125;59.628;17.852;2023-07-13T05:45:32;17.10;99.90
12123;DHT22;6125;59.628;17.852;2023-07-13T05:47:59;17.20;99.90
12123;DHT22;6125;59.628;17.852;2023-07-13T05:50:27;17.30;99.90
12123;DHT22;6125;59.628;17.852;2023-07-13T05:52:54;17.40;99.90
12123;DHT22;6125;59.628;17.852;2023-07-13T05:55:22;17.40;99.90
12123;DHT22;6125;59.628;17.852;2023-07-13T05:57:51;17.50;99.90
12123;DHT22;6125;59.628;17.852;2023-07-13T06:00:18;17.60;99.90
12123;DHT22;6125;59.628;17.852;2023-07-13T06:02:46;17.70;99.90
12123;DHT22;6125;59.628;17.852;2023-07-13T06:05:13;17.80;99.90
12123;DHT22;6125;59.628;17.852;2023-07-13T06:07:41;17.90;99.90
12123;DHT22;6125;59.628;17.852;2023-07-13T06:10:09;18.00;99.90
12123;DHT22;6125;59.628;17.852;2023-07-13T06:12:36;18.20;99.90
12123;DHT22;6125;59.628;17.852;2023-07-13T06:15:06;18.40;99.90
12123;DHT22;6125;59.628;17.852;2023-07-13T06:17:34;18.40;99.90
12123;DHT22;6125;59.628;17.852;2023-07-13T06:20:01;18.40;99.90
12123;DHT22;6125;59.628;17.852;2023-07-13T06:22:28;18.40;99.90
12123;DHT22;6125;59.628;17.852;2023-07-13T06:24:55;18.40;99.90
12123;DHT22;6125;59.628;17.852;2023-07-13T06:27:23;18.40;99.90
12123;DHT22;6125;59.628;17.852;2023-07-13T06:29:50;18.40;99.90
12123;DHT22;6125;59.628;17.852;2023-07-13T06:32:19;18.40;99.90
12123;DHT22;6125;59.628;17.852;2023-07-13T06:34:46;18.40;99.90
12123;DHT22;6125;59.628;17.852;2023-07-13T06:37:13;18.40;99.90
12123;DHT22;6125;59.628;17.852;2023-07-13T06:39:41;18.50;99.90
12123;DHT22;6125;59.628;17.852;2023-07-13T06:42:08;18.70;99.90
12123;DHT22;6125;59.628;17.852;2023-07-13T06:44:36;18.90;99.90
12123;DHT22;6125;59.628;17.852;2023-07-13T06:47:04;19.10;99.90
12123;DHT22;6125;59.628;17.852;2023-07-13T06:49:33;19.20;99.90
12123;DHT22;6125;59.628;17.852;2023-07-13T06:52:01;19.20;99.90
12123;DHT22;6125;59.628;17.852;2023-07-13T06:54:28;19.10;99.90
12123;DHT22;6125;59.628;17.852;2023-07-13T06:56:55;18.80;99.90
12123;DHT22;6125;59.628;17.852;2023-07-13T06:59:22;18.50;99.90
12123;DHT22;6125;59.628;17.852;2023-07-13T07:01:49;18.40;99.90
12123;DHT22;6125;59.628;17.852;2023-07-13T07:04:16;18.40;99.90
12123;DHT22;6125;59.628;17.852;2023-07-13T07:06:45;18.50;99.90
12123;DHT22;6125;59.628;17.852;2023-07-13T07:09:12;18.50;99.90
12123;DHT22;6125;59.628;17.852;2023-07-13T07:11:42;18.50;99.90
12123;DHT22;6125;59.628;17.852;2023-07-13T07:14:09;18.40;99.90
12123;DHT22;6125;59.628;17.852;2023-07-13T07:16:37;18.40;99.90
12123;DHT22;6125;59.628;17.852;2023-07-13T07:19:04;18.20;99.90
12123;DHT22;6125;59.628;17.852;2023-07-13T07:21:31;18.10;99.90
12123;DHT22;6125;59.628;17.852;2023-07-13T07:24:00;18.10;99.90
12123;DHT22;6125;59.628;17.852;2023-07-13T07:26:28;18.20;99.90
12123;DHT22;6125;59.628;17.852;2023-07-13T07:28:56;18.30;99.90
12123;DHT22;6125;59.628;17.852;2023-07-13T07:31:23;18.50;99.90
12123;DHT22;6125;59.628;17.852;2023-07-13T07:33:50;18.60;99.90
12123;DHT22;6125;59.628;17.852;2023-07-13T07:36:17;18.80;99.90
12123;DHT22;6125;59.628;17.852;2023-07-13T07:38:45;19.00;99.90
12123;DHT22;6125;59.628;17.852;2023-07-13T07:41:14;19.20;99.90
12123;DHT22;6125;59.628;17.852;2023-07-13T07:43:41;19.50;99.90
12123;DHT22;6125;59.628;17.852;2023-07-13T07:46:08;19.70;99.90
12123;DHT22;6125;59.628;17.852;2023-07-13T07:48:36;19.80;99.90
12123;DHT22;6125;59.628;17.852;2023-07-13T07:51:03;19.80;99.90
12123;DHT22;6125;59.628;17.852;2023-07-13T07:53:30;19.90;99.90
12123;DHT22;6125;59.628;17.852;2023-07-13T07:55:57;20.10;99.90
12123;DHT22;6125;59.628;17.852;2023-07-13T07:58:26;20.20;99.90
12123;DHT22;6125;59.628;17.852;2023-07-13T08:00:54;20.20;99.90
12123;DHT22;6125;59.628;17.852;2023-07-13T08:03:21;20.20;99.90
12123;DHT22;6125;59.628;17.852;2023-07-13T08:05:48;20.10;99.90
12123;DHT22;6125;59.628;17.852;2023-07-13T08:08:16;20.00;99.90
12123;DHT22;6125;59.628;17.852;2023-07-13T08:10:43;19.90;99.90
12123;DHT22;6125;59.628;17.852;2023-07-13T08:13:10;19.90;99.90
12123;DHT22;6125;59.628;17.852;2023-07-13T08:15:39;19.80;99.90
12123;DHT22;6125;59.628;17.852;2023-07-13T08:18:06;19.80;99.90
12123;DHT22;6125;59.628;17.852;2023-07-13T08:20:37;19.90;99.90
12123;DHT22;6125;59.628;17.852;2023-07-13T08:23:04;19.80;99.90
12123;DHT22;6125;59.628;17.852;2023-07-13T08:25:31;20.00;99.90
12123;DHT22;6125;59.628;17.852;2023-07-13T08:27:58;20.10;99.90
12123;DHT22;6125;59.628;17.852;2023-07-13T08:30:25;20.20;99.90
12123;DHT22;6125;59.628;17.852;2023-07-13T08:32:54;20.40;99.90
12123;DHT22;6125;59.628;17.852;2023-07-13T08:35:22;20.50;99.90
12123;DHT22;6125;59.628;17.852;2023-07-13T08:37:51;20.50;99.90
12123;DHT22;6125;59.628;17.852;2023-07-13T08:40:22;20.60;99.90
12123;DHT22;6125;59.628;17.852;2023-07-13T08:42:54;20.70;99.90
12123;DHT22;6125;59.628;17.852;2023-07-13T08:45:25;20.70;99.90
12123;DHT22;6125;59.628;17.852;2023-07-13T08:48:01;20.70;99.90
12123;DHT22;6125;59.628;17.852;2023-07-13T08:50:32;20.70;99.90
12123;DHT22;6125;59.628;17.852;2023-07-13T08:53:00;20.80;99.90
12123;DHT22;6125;59.628;17.852;2023-07-13T08:55:31;20.70;99.90
12123;DHT22;6125;59.628;17.852;2023-07-13T08:58:05;20.80;99.90
12123;DHT22;6125;59.628;17.852;2023-07-13T09:00:44;21.00;99.90
12123;DHT22;6125;59.628;17.852;2023-07-13T09:03:21;21.00;99.90
12123;DHT22;6125;59.628;17.852;2023-07-13T09:05:54;21.00;99.90
12123;DHT22;6125;59.628;17.852;2023-07-13T09:08:38;20.90;99.90
12123;DHT22;6125;59.628;17.852;2023-07-13T09:11:26;20.90;99.90
12123;DHT22;6125;59.628;17.852;2023-07-13T09:14:03;20.90;99.90
12123;DHT22;6125;59.628;17.852;2023-07-13T09:16:32;21.00;99.90
12123;DHT22;6125;59.628;17.852;2023-07-13T09:19:05;21.10;99.90
12123;DHT22;6125;59.628;17.852;2023-07-13T09:21:38;21.30;99.90
12123;DHT22;6125;59.628;17.852;2023-07-13T09:24:27;21.50;99.90
12123;DHT22;6125;59.628;17.852;2023-07-13T09:26:56;21.70;99.90
12123;DHT22;6125;59.628;17.852;2023-07-13T09:29:28;21.80;99.90
12123;DHT22;6125;59.628;17.852;2023-07-13T09:31:58;21.80;99.90
12123;DHT22;6125;59.628;17.852;2023-07-13T09:34:29;21.80;99.90
12123;DHT22;6125;59.628;17.852;2023-07-13T09:36:57;21.70;99.90
12123;DHT22;6125;59.628;17.852;2023-07-13T09:39:27;21.60;99.90
12123;DHT22;6125;59.628;17.852;2023-07-13T09:42:01;21.70;99.90
12123;DHT22;6125;59.628;17.852;2023-07-13T09:44:36;21.70;99.90
12123;DHT22;6125;59.628;17.852;2023-07-13T09:47:15;21.60;99.90
12123;DHT22;6125;59.628;17.852;2023-07-13T09:49:44;21.60;99.90
12123;DHT22;6125;59.628;17.852;2023-07-13T09:52:14;21.70;99.90
12123;DHT22;6125;59.628;17.852;2023-07-13T09:54:46;21.80;99.90
12123;DHT22;6125;59.628;17.852;2023-07-13T09:57:19;21.90;99.90
12123;DHT22;6125;59.628;17.852;2023-07-13T09:59:51;22.10;99.90
12123;DHT22;6125;59.628;17.852;2023-07-13T10:02:30;22.20;99.90
12123;DHT22;6125;59.628;17.852;2023-07-13T10:05:02;22.40;99.90
12123;DHT22;6125;59.628;17.852;2023-07-13T10:07:30;22.40;99.90
12123;DHT22;6125;59.628;17.852;2023-07-13T10:09:59;22.40;99.90
12123;DHT22;6125;59.628;17.852;2023-07-13T10:12:29;22.40;99.90
12123;DHT22;6125;59.628;17.852;2023-07-13T10:14:58;22.40;99.90
12123;DHT22;6125;59.628;17.852;2023-07-13T10:17:30;22.50;99.90
12123;DHT22;6125;59.628;17.852;2023-07-13T10:20:03;22.50;99.90
12123;DHT22;6125;59.628;17.852;2023-07-13T10:22:37;22.50;99.90
12123;DHT22;6125;59.628;17.852;2023-07-13T10:25:15;22.50;99.90
12123;DHT22;6125;59.628;17.852;2023-07-13T10:27:44;22.30;99.90
12123;DHT22;6125;59.628;17.852;2023-07-13T10:30:17;22.30;99.90
12123;DHT22;6125;59.628;17.852;2023-07-13T10:32:46;22.40;99.90
12123;DHT22;6125;59.628;17.852;2023-07-13T10:35:17;22.50;99.90
12123;DHT22;6125;59.628;17.852;2023-07-13T10:37:49;22.50;99.90
12123;DHT22;6125;59.628;17.852;2023-07-13T10:40:21;22.70;99.90
12123;DHT22;6125;59.628;17.852;2023-07-13T10:42:53;22.90;99.90
12123;DHT22;6125;59.628;17.852;2023-07-13T10:45:23;22.90;99.90
12123;DHT22;6125;59.628;17.852;2023-07-13T10:47:52;23.00;99.90
12123;DHT22;6125;59.628;17.852;2023-07-13T10:50:25;22.90;99.90
12123;DHT22;6125;59.628;17.852;2023-07-13T10:52:55;22.50;99.90
12123;DHT22;6125;59.628;17.852;2023-07-13T10:55:34;22.20;99.90
12123;DHT22;6125;59.628;17.852;2023-07-13T10:58:11;22.10;99.90
12123;DHT22;6125;59.628;17.852;2023-07-13T11:00:46;22.00;99.90
12123;DHT22;6125;59.628;17.852;2023-07-13T11:03:16;21.90;99.90
12123;DHT22;6125;59.628;17.852;2023-07-13T11:05:49;22.00;99.90
12123;DHT22;6125;59.628;17.852;2023-07-13T11:08:21;22.20;99.90
12123;DHT22;6125;59.628;17.852;2023-07-13T11:10:58;22.40;99.90
12123;DHT22;6125;59.628;17.852;2023-07-13T11:16:41;22.20;99.90
12123;DHT22;6125;59.628;17.852;2023-07-13T11:19:37;22.10;99.90
12123;DHT22;6125;59.628;17.852;2023-07-13T11:22:21;22.10;99.90
12123;DHT22;6125;59.628;17.852;2023-07-13T11:24:57;22.20;99.90
12123;DHT22;6125;59.628;17.852;2023-07-13T11:27:36;22.30;99.90
12123;DHT22;6125;59.628;17.852;2023-07-13T11:32:52;22.50;99.90
12123;DHT22;6125;59.628;17.852;2023-07-13T11:35:33;22.40;99.90
12123;DHT22;6125;59.628;17.852;2023-07-13T11:38:12;22.40;99.90
12123;DHT22;6125;59.628;17.852;2023-07-13T11:40:43;22.50;99.90
12123;DHT22;6125;59.628;17.852;2023-07-13T11:43:13;22.70;99.90
12123;DHT22;6125;59.628;17.852;2023-07-13T11:45:41;22.80;99.90
12123;DHT22;6125;59.628;17.852;2023-07-13T11:48:23;23.00;99.90
12123;DHT22;6125;59.628;17.852;2023-07-13T11:50:57;23.20;99.90
12123;DHT22;6125;59.628;17.852;2023-07-13T11:53:29;23.50;99.90
12123;DHT22;6125;59.628;17.852;2023-07-13T11:55:57;23.60;99.90
12123;DHT22;6125;59.628;17.852;2023-07-13T11:58:26;23.80;99.90
12123;DHT22;6125;59.628;17.852;2023-07-13T12:00:58;23.90;99.90
12123;DHT22;6125;59.628;17.852;2023-07-13T12:03:28;24.00;99.90
12123;DHT22;6125;59.628;17.852;2023-07-13T12:05:57;24.00;99.90
12123;DHT22;6125;59.628;17.852;2023-07-13T12:08:26;24.00;99.90
12123;DHT22;6125;59.628;17.852;2023-07-13T12:11:04;23.90;99.90
12123;DHT22;6125;59.628;17.852;2023-07-13T12:13:37;23.60;99.90
12123;DHT22;6125;59.628;17.852;2023-07-13T12:16:25;23.40;99.90
12123;DHT22;6125;59.628;17.852;2023-07-13T12:18:53;23.20;99.90
12123;DHT22;6125;59.628;17.852;2023-07-13T12:21:27;23.30;99.90
12123;DHT22;6125;59.628;17.852;2023-07-13T12:23:58;23.60;99.90
12123;DHT22;6125;59.628;17.852;2023-07-13T12:26:28;24.00;99.90
12123;DHT22;6125;59.628;17.852;2023-07-13T12:28:57;24.30;99.90
12123;DHT22;6125;59.628;17.852;2023-07-13T12:31:31;24.60;99.90
12123;DHT22;6125;59.628;17.852;2023-07-13T12:34:03;24.70;99.90
12123;DHT22;6125;59.628;17.852;2023-07-13T12:36:32;24.70;99.90
12123;DHT22;6125;59.628;17.852;2023-07-13T12:39:12;24.50;99.90
12123;DHT22;6125;59.628;17.852;2023-07-13T12:41:40;24.50;99.90
12123;DHT22;6125;59.628;17.852;2023-07-13T12:44:11;24.40;99.90
12123;DHT22;6125;59.628;17.852;2023-07-13T12:46:50;24.30;99.90
12123;DHT22;6125;59.628;17.852;2023-07-13T12:49:17;24.30;99.90
12123;DHT22;6125;59.628;17.852;2023-07-13T12:51:49;24.40;99.90
12123;DHT22;6125;59.628;17.852;2023-07-13T12:54:19;24.30;99.90
12123;DHT22;6125;59.628;17.852;2023-07-13T12:56:49;24.20;99.90
12123;DHT22;6125;59.628;17.852;2023-07-13T12:59:20;24.00;99.90
12123;DHT22;6125;59.628;17.852;2023-07-13T13:01:48;23.80;99.90
12123;DHT22;6125;59.628;17.852;2023-07-13T13:04:16;23.50;99.90
12123;DHT22;6125;59.628;17.852;2023-07-13T13:06:47;23.40;99.90
12123;DHT22;6125;59.628;17.852;2023-07-13T13:09:16;23.60;99.90
12123;DHT22;6125;59.628;17.852;2023-07-13T13:11:45;23.70;99.90
12123;DHT22;6125;59.628;17.852;2023-07-13T13:14:12;23.90;99.90
12123;DHT22;6125;59.628;17.852;2023-07-13T13:16:47;24.30;99.90
12123;DHT22;6125;59.628;17.852;2023-07-13T13:19:18;24.50;99.90
12123;DHT22;6125;59.628;17.852;2023-07-13T13:21:47;24.60;99.90
12123;DHT22;6125;59.628;17.852;2023-07-13T13:24:17;24.80;99.90
12123;DHT22;6125;59.628;17.852;2023-07-13T13:26:48;25.00;99.90
12123;DHT22;6125;59.628;17.852;2023-07-13T13:29:17;24.90;99.90
12123;DHT22;6125;59.628;17.852;2023-07-13T13:31:44;24.90;99.90
12123;DHT22;6125;59.628;17.852;2023-07-13T13:34:16;25.00;99.90
12123;DHT22;6125;59.628;17.852;2023-07-13T13:36:44;25.20;99.90
12123;DHT22;6125;59.628;17.852;2023-07-13T13:39:20;25.10;99.90
12123;DHT22;6125;59.628;17.852;2023-07-13T13:41:51;25.00;99.90
12123;DHT22;6125;59.628;17.852;2023-07-13T13:44:20;25.00;99.90
12123;DHT22;6125;59.628;17.852;2023-07-13T13:46:49;25.10;99.90
12123;DHT22;6125;59.628;17.852;2023-07-13T13:49:19;25.30;99.90
12123;DHT22;6125;59.628;17.852;2023-07-13T13:51:46;25.50;99.90
12123;DHT22;6125;59.628;17.852;2023-07-13T13:54:15;25.80;99.90
12123;DHT22;6125;59.628;17.852;2023-07-13T13:56:44;26.10;99.90
12123;DHT22;6125;59.628;17.852;2023-07-13T13:59:13;26.10;99.90
12123;DHT22;6125;59.628;17.852;2023-07-13T14:01:41;26.00;99.90
12123;DHT22;6125;59.628;17.852;2023-07-13T14:04:14;25.80;99.90
12123;DHT22;6125;59.628;17.852;2023-07-13T14:06:43;25.60;99.90
12123;DHT22;6125;59.628;17.852;2023-07-13T14:09:13;25.60;99.90
12123;DHT22;6125;59.628;17.852;2023-07-13T14:11:41;25.60;99.90
12123;DHT22;6125;59.628;17.852;2023-07-13T14:14:14;25.80;99.90
12123;DHT22;6125;59.628;17.852;2023-07-13T14:16:42;25.90;99.90
12123;DHT22;6125;59.628;17.852;2023-07-13T14:19:12;25.90;99.90
12123;DHT22;6125;59.628;17.852;2023-07-13T14:21:40;25.70;99.90
12123;DHT22;6125;59.628;17.852;2023-07-13T14:24:07;25.30;99.90
12123;DHT22;6125;59.628;17.852;2023-07-13T14:26:38;24.90;99.90
12123;DHT22;6125;59.628;17.852;2023-07-13T14:29:14;24.60;99.90
12123;DHT22;6125;59.628;17.852;2023-07-13T14:31:42;24.40;99.90
12123;DHT22;6125;59.628;17.852;2023-07-13T14:34:10;24.30;99.90
12123;DHT22;6125;59.628;17.852;2023-07-13T14:36:41;24.10;99.90
12123;DHT22;6125;59.628;17.852;2023-07-13T14:39:14;24.00;99.90
12123;DHT22;6125;59.628;17.852;2023-07-13T14:41:42;23.90;99.90
12123;DHT22;6125;59.628;17.852;2023-07-13T14:44:12;23.90;99.90
12123;DHT22;6125;59.628;17.852;2023-07-13T14:46:41;24.00;99.90
12123;DHT22;6125;59.628;17.852;2023-07-13T14:49:15;24.30;99.90
12123;DHT22;6125;59.628;17.852;2023-07-13T14:51:47;24.60;99.90
12123;DHT22;6125;59.628;17.852;2023-07-13T14:54:14;25.10;99.90
12123;DHT22;6125;59.628;17.852;2023-07-13T14:56:41;25.40;99.90
12123;DHT22;6125;59.628;17.852;2023-07-13T14:59:08;25.80;99.90
12123;DHT22;6125;59.628;17.852;2023-07-13T15:01:36;26.30;99.90
12123;DHT22;6125;59.628;17.852;2023-07-13T15:04:06;27.00;99.90
12123;DHT22;6125;59.628;17.852;2023-07-13T15:06:56;27.60;99.90
12123;DHT22;6125;59.628;17.852;2023-07-13T15:09:24;28.20;99.90
12123;DHT22;6125;59.628;17.852;2023-07-13T15:11:54;28.60;99.90
12123;DHT22;6125;59.628;17.852;2023-07-13T15:14:22;29.00;99.90
12123;DHT22;6125;59.628;17.852;2023-07-13T15:16:53;28.90;99.90
12123;DHT22;6125;59.628;17.852;2023-07-13T15:19:23;28.80;99.90
12123;DHT22;6125;59.628;17.852;2023-07-13T15:21:51;29.00;99.90
12123;DHT22;6125;59.628;17.852;2023-07-13T15:24:20;29.80;99.90
12123;DHT22;6125;59.628;17.852;2023-07-13T15:26:48;30.00;99.90
12123;DHT22;6125;59.628;17.852;2023-07-13T15:29:15;29.70;99.90
12123;DHT22;6125;59.628;17.852;2023-07-13T15:31:43;29.60;99.90
12123;DHT22;6125;59.628;17.852;2023-07-13T15:34:13;29.30;99.90
12123;DHT22;6125;59.628;17.852;2023-07-13T15:36:43;29.00;99.90
12123;DHT22;6125;59.628;17.852;2023-07-13T15:39:13;28.60;99.90
12123;DHT22;6125;59.628;17.852;2023-07-13T15:41:42;28.10;99.90
12123;DHT22;6125;59.628;17.852;2023-07-13T15:44:25;27.50;99.90
12123;DHT22;6125;59.628;17.852;2023-07-13T15:46:53;27.00;99.90
12123;DHT22;6125;59.628;17.852;2023-07-13T15:49:21;26.70;99.90
12123;DHT22;6125;59.628;17.852;2023-07-13T15:51:50;26.40;99.90